Time;durP1;ratioP1;P1;durP2;ratioP2;P2;SDS_P1;SDS_P2;PMS_P1;PMS_P2;Temp;Humidity;BMP_temperature;BMP_pressure;BME280_temperature;BME280_humidity;BME280_pressure;Samples;Min_cycle;Max_cycle;Signal;HPM_P1;HPM_P2
2021/03/25 00:00:16;;;;;;;17.58;11.93;;;5.80;99.90;;;;;;4810304;29;20218;-80
2021/03/25 00:02:43;;;;;;;12.95;11.40;;;5.80;99.90;;;;;;4809792;29;20230;-80
2021/03/25 00:05:13;;;;;;;15.23;12.50;;;5.80;99.90;;;;;;4810128;29;20221;-80
2021/03/25 00:07:39;;;;;;;15.80;11.27;;;5.70;99.90;;;;;;4809707;29;20238;-80
2021/03/25 00:10:07;;;;;;;13.52;11.10;;;5.70;99.90;;;;;;4802706;29;20213;-80
2021/03/25 00:12:33;;;;;;;20.65;12.48;;;5.60;99.90;;;;;;4810055;29;20214;-80
2021/03/25 00:15:01;;;;;;;13.20;11.13;;;5.60;99.90;;;;;;4809693;29;20254;-80
2021/03/25 00:17:27;;;;;;;14.75;11.88;;;5.60;99.90;;;;;;4810058;29;20717;-80
2021/03/25 00:19:53;;;;;;;18.95;13.15;;;5.60;99.90;;;;;;4810044;29;20214;-80
2021/03/25 00:22:19;;;;;;;15.27;11.95;;;5.60;99.90;;;;;;4809914;29;20238;-80
2021/03/25 00:24:46;;;;;;;16.17;12.68;;;5.60;99.90;;;;;;4809979;29;20247;-80
2021/03/25 00:27:12;;;;;;;14.05;12.23;;;5.60;99.90;;;;;;4810170;29;20242;-80
2021/03/25 00:29:38;;;;;;;17.40;13.15;;;5.60;99.90;;;;;;4809552;29;20214;-80
2021/03/25 00:32:07;;;;;;;12.68;11.52;;;5.60;99.90;;;;;;4809877;29;20248;-80
2021/03/25 00:34:34;;;;;;;19.20;12.18;;;5.60;99.90;;;;;;4810236;29;20637;-80
2021/03/25 00:37:00;;;;;;;16.95;12.88;;;5.60;99.90;;;;;;4809933;29;20257;-80
2021/03/25 00:39:27;;;;;;;13.90;12.15;;;5.60;99.90;;;;;;4810153;29;20229;-80
2021/03/25 00:41:53;;;;;;;13.75;11.85;;;5.60;99.90;;;;;;4809791;29;20226;-80
2021/03/25 00:44:19;;;;;;;15.73;11.00;;;5.60;99.90;;;;;;4809626;29;20222;-80
2021/03/25 00:46:45;;;;;;;16.95;12.38;;;5.60;99.90;;;;;;4809583;29;20253;-80
2021/03/25 00:49:13;;;;;;;18.25;13.30;;;5.60;99.90;;;;;;4812172;29;20230;-80
2021/03/25 00:51:39;;;;;;;11.63;10.48;;;5.60;99.90;;;;;;4813315;29;20294;-80
2021/03/25 00:54:06;;;;;;;15.55;11.10;;;5.50;99.90;;;;;;4813383;29;20238;-80
2021/03/25 00:56:32;;;;;;;14.75;11.95;;;5.50;99.90;;;;;;4813004;29;20286;-82
2021/03/25 00:58:59;;;;;;;21.92;16.65;;;5.50;99.90;;;;;;4813390;29;20216;-82
2021/03/25 01:01:25;;;;;;;16.05;10.60;;;5.50;99.90;;;;;;4812975;29;20234;-82
2021/03/25 01:03:52;;;;;;;13.38;11.73;;;5.40;99.90;;;;;;4812950;29;20277;-82
2021/03/25 01:06:19;;;;;;;13.90;11.48;;;5.50;99.90;;;;;;4813195;29;20658;-81
2021/03/25 01:08:45;;;;;;;16.00;11.65;;;5.50;99.90;;;;;;4813688;29;20223;-82
2021/03/25 01:11:15;;;;;;;15.57;12.75;;;5.50;99.90;;;;;;4813359;29;20215;-82
2021/03/25 01:13:44;;;;;;;18.33;13.65;;;5.50;99.90;;;;;;4812610;29;20222;-82
2021/03/25 01:16:14;;;;;;;14.63;12.65;;;5.50;99.90;;;;;;4813034;29;20731;-81
2021/03/25 01:18:40;;;;;;;15.32;12.48;;;5.50;99.90;;;;;;4812837;29;20275;-82
2021/03/25 01:21:07;;;;;;;15.75;12.20;;;5.50;99.90;;;;;;4813007;29;20241;-81
2021/03/25 01:23:34;;;;;;;17.38;13.35;;;5.50;99.90;;;;;;4812502;29;20221;-80
2021/03/25 01:26:01;;;;;;;19.52;15.27;;;5.50;99.90;;;;;;4812370;29;20253;-80
2021/03/25 01:28:27;;;;;;;15.95;12.20;;;5.50;99.90;;;;;;4812262;29;20277;-80
2021/03/25 01:30:53;;;;;;;17.73;13.57;;;5.40;99.90;;;;;;4812991;29;20210;-80
2021/03/25 01:33:22;;;;;;;12.93;11.52;;;5.40;99.90;;;;;;4812004;29;20229;-80
2021/03/25 01:35:48;;;;;;;12.18;10.95;;;5.40;99.90;;;;;;4813007;29;20242;-80
2021/03/25 01:38:17;;;;;;;15.43;12.45;;;5.40;99.90;;;;;;4812035;29;20219;-80
2021/03/25 01:40:46;;;;;;;15.57;13.32;;;5.40;99.90;;;;;;4811595;29;20233;-81
2021/03/25 01:43:21;;;;;;;15.68;12.43;;;5.40;99.90;;;;;;4812221;29;20215;-80
2021/03/25 01:45:53;;;;;;;15.55;13.95;;;5.40;99.90;;;;;;4812513;29;20270;-80
2021/03/25 01:48:21;;;;;;;14.15;12.55;;;5.40;99.90;;;;;;4812704;29;20757;-80
2021/03/25 01:50:48;;;;;;;15.98;12.05;;;5.40;99.90;;;;;;4811837;29;20215;-80
2021/03/25 01:53:55;;;;;;;14.30;11.65;;;5.40;99.90;;;;;;4812056;29;20214;-80
2021/03/25 01:56:34;;;;;;;11.55;10.35;;;5.40;99.90;;;;;;4812256;29;20241;-80
2021/03/25 01:59:30;;;;;;;11.50;10.30;;;5.40;99.90;;;;;;4811890;29;20218;-80
2021/03/25 02:02:06;;;;;;;14.23;11.23;;;5.40;99.90;;;;;;4811657;29;20241;-80
2021/03/25 02:04:44;;;;;;;17.45;11.95;;;5.40;99.90;;;;;;4811803;29;20361;-80
2021/03/25 02:07:18;;;;;;;12.55;11.25;;;5.40;99.90;;;;;;4811803;29;20246;-80
2021/03/25 02:09:53;;;;;;;13.82;12.35;;;5.40;99.90;;;;;;4811458;29;20218;-80
2021/03/25 02:12:30;;;;;;;13.18;10.75;;;5.40;99.90;;;;;;4812027;29;20206;-80
2021/03/25 02:15:06;;;;;;;13.00;11.48;;;5.40;99.90;;;;;;4811906;29;20214;-80
2021/03/25 02:17:39;;;;;;;14.82;11.38;;;5.40;99.90;;;;;;4811409;29;20238;-80
2021/03/25 02:20:40;;;;;;;12.40;10.23;;;5.40;99.90;;;;;;4811833;29;20570;-80
2021/03/25 02:23:44;;;;;;;9.75;8.75;;;5.40;99.90;;;;;;4780677;29;20685;-80
2021/03/25 02:26:15;;;;;;;13.82;9.88;;;5.40;99.90;;;;;;4811379;29;20234;-80
2021/03/25 02:29:14;;;;;;;14.27;9.80;;;5.40;99.90;;;;;;4811588;29;20268;-80
2021/03/25 02:31:46;;;;;;;12.02;8.98;;;5.50;99.90;;;;;;4811172;29;20210;-80
2021/03/25 02:34:20;;;;;;;11.98;10.40;;;5.50;99.90;;;;;;4811455;29;20219;-80
2021/03/25 02:36:51;;;;;;;12.32;11.07;;;5.50;99.90;;;;;;4811108;29;20230;-80
2021/03/25 02:39:24;;;;;;;11.73;9.20;;;5.50;99.90;;;;;;4811393;29;20566;-80
2021/03/25 02:41:54;;;;;;;11.35;9.65;;;5.50;99.90;;;;;;4811447;29;20241;-80
2021/03/25 02:44:26;;;;;;;14.80;10.88;;;5.50;99.90;;;;;;4811602;29;20266;-80
2021/03/25 02:46:59;;;;;;;9.98;9.05;;;5.50;99.90;;;;;;4811152;29;20238;-80
2021/03/25 02:49:28;;;;;;;10.98;8.50;;;5.50;99.90;;;;;;4811326;29;20218;-79
2021/03/25 02:52:05;;;;;;;10.38;8.27;;;5.50;99.90;;;;;;4811039;29;20576;-80
2021/03/25 02:54:32;;;;;;;13.60;8.55;;;5.50;99.90;;;;;;4811562;29;20657;-80
2021/03/25 02:57:07;;;;;;;9.82;8.82;;;5.50;99.90;;;;;;4810446;29;20261;-80
2021/03/25 02:59:36;;;;;;;11.18;8.73;;;5.50;99.90;;;;;;4811141;29;20225;-80
2021/03/25 03:02:13;;;;;;;12.52;8.55;;;5.50;99.90;;;;;;4811271;29;20234;-80
2021/03/25 03:04:41;;;;;;;8.32;7.60;;;5.50;99.90;;;;;;4810502;29;20218;-80
2021/03/25 03:07:11;;;;;;;16.48;11.13;;;5.40;99.90;;;;;;4810608;29;20249;-79
2021/03/25 03:09:41;;;;;;;9.85;8.68;;;5.40;99.90;;;;;;4810568;29;20244;-79
2021/03/25 03:12:14;;;;;;;11.65;8.25;;;5.40;99.90;;;;;;4809608;29;20267;-80
2021/03/25 03:14:43;;;;;;;11.25;8.50;;;5.40;99.90;;;;;;4811127;29;20571;-80
2021/03/25 03:17:15;;;;;;;12.38;11.15;;;5.40;99.90;;;;;;4810188;29;20235;-80
2021/03/25 03:19:47;;;;;;;11.57;9.43;;;5.40;99.90;;;;;;4811279;29;20221;-80
2021/03/25 03:22:13;;;;;;;10.60;9.50;;;5.30;99.90;;;;;;4810094;29;20234;-80
2021/03/25 03:24:39;;;;;;;12.20;10.95;;;5.30;99.90;;;;;;4811180;29;20218;-80
2021/03/25 03:27:12;;;;;;;11.57;10.40;;;5.30;99.90;;;;;;4810973;29;20252;-80
2021/03/25 03:29:40;;;;;;;14.13;10.23;;;5.20;99.90;;;;;;4810466;29;20214;-80
2021/03/25 03:32:17;;;;;;;16.80;11.25;;;5.20;99.90;;;;;;4810124;29;20214;-80
2021/03/25 03:34:46;;;;;;;13.05;10.75;;;5.20;99.90;;;;;;4810764;29;20218;-80
2021/03/25 03:37:18;;;;;;;15.00;11.57;;;5.10;99.90;;;;;;4810562;29;20237;-79
2021/03/25 03:39:46;;;;;;;16.88;12.35;;;5.10;99.90;;;;;;4809982;29;20278;-80
2021/03/25 03:42:16;;;;;;;13.88;11.77;;;5.10;99.90;;;;;;4809701;29;20233;-79
2021/03/25 03:44:46;;;;;;;12.40;10.85;;;5.00;99.90;;;;;;4810473;29;20215;-80
2021/03/25 03:47:16;;;;;;;15.60;12.80;;;5.00;99.90;;;;;;4809800;29;20265;-80
2021/03/25 03:49:46;;;;;;;13.55;12.00;;;4.90;99.90;;;;;;4810453;29;20214;-79
2021/03/25 03:52:16;;;;;;;14.13;11.43;;;4.90;99.90;;;;;;4810091;29;20217;-79
2021/03/25 03:54:44;;;;;;;14.93;11.98;;;4.80;99.90;;;;;;4809952;29;20601;-80
2021/03/25 03:57:17;;;;;;;14.27;12.77;;;4.80;99.90;;;;;;4810327;29;20256;-79
2021/03/25 03:59:50;;;;;;;14.90;11.85;;;4.80;99.90;;;;;;4810035;29;20218;-80
2021/03/25 04:02:27;;;;;;;14.48;13.07;;;4.70;99.90;;;;;;4810215;29;20238;-80
2021/03/25 04:05:07;;;;;;;13.73;11.95;;;4.70;99.90;;;;;;4810537;29;20225;-79
2021/03/25 04:07:36;;;;;;;12.95;11.63;;;4.70;99.90;;;;;;4810108;29;20282;-80
2021/03/25 04:10:12;;;;;;;15.57;11.57;;;4.60;99.90;;;;;;4809951;29;20225;-80
2021/03/25 04:12:41;;;;;;;13.55;12.15;;;4.60;99.90;;;;;;4810205;29;20635;-80
2021/03/25 04:15:14;;;;;;;13.85;11.48;;;4.50;99.90;;;;;;4810530;29;20275;-80
2021/03/25 04:17:46;;;;;;;13.48;11.68;;;4.50;99.90;;;;;;4809459;29;20256;-80
2021/03/25 04:20:16;;;;;;;11.38;10.23;;;4.50;99.90;;;;;;4810104;29;20225;-80
2021/03/25 04:22:46;;;;;;;17.38;12.32;;;4.50;99.90;;;;;;4809601;29;20237;-80
2021/03/25 04:25:19;;;;;;;11.27;10.18;;;4.40;99.90;;;;;;4813945;29;20212;-82
2021/03/25 04:27:51;;;;;;;13.45;12.05;;;4.40;99.90;;;;;;4813482;29;20241;-81
2021/03/25 04:30:20;;;;;;;13.00;11.18;;;4.40;99.90;;;;;;4813743;29;20222;-81
2021/03/25 04:32:49;;;;;;;13.00;11.38;;;4.40;99.90;;;;;;4812784;29;20214;-82
2021/03/25 04:35:17;;;;;;;16.05;11.38;;;4.40;99.90;;;;;;4813987;29;20221;-81
2021/03/25 04:37:44;;;;;;;13.75;11.88;;;4.40;99.90;;;;;;4813770;29;20624;-82
2021/03/25 04:40:15;;;;;;;11.90;10.13;;;4.30;99.90;;;;;;4813122;29;20215;-82
2021/03/25 04:42:43;;;;;;;13.60;10.20;;;4.30;99.90;;;;;;4812881;29;20234;-81
2021/03/25 04:45:20;;;;;;;13.40;11.00;;;4.30;99.90;;;;;;4812983;29;20709;-81
2021/03/25 04:47:50;;;;;;;12.15;10.85;;;4.30;99.90;;;;;;4813418;29;20238;-81
2021/03/25 04:50:21;;;;;;;16.13;11.10;;;4.20;99.90;;;;;;4813432;29;20211;-81
2021/03/25 04:52:48;;;;;;;13.63;10.93;;;4.20;99.90;;;;;;4812981;29;20214;-81
2021/03/25 04:55:20;;;;;;;17.17;10.55;;;4.20;99.90;;;;;;4813640;29;20236;-81
2021/03/25 04:57:53;;;;;;;12.50;10.35;;;4.20;99.90;;;;;;4812963;29;20326;-81
2021/03/25 05:00:25;;;;;;;12.80;10.20;;;4.20;99.90;;;;;;4813575;29;20224;-81
2021/03/25 05:02:53;;;;;;;13.63;11.85;;;4.20;99.90;;;;;;4812980;29;20330;-81
2021/03/25 05:05:24;;;;;;;12.30;10.43;;;4.20;99.90;;;;;;4813087;29;20776;-81
2021/03/25 05:07:57;;;;;;;10.82;9.55;;;4.20;99.90;;;;;;4812700;29;20238;-81
2021/03/25 05:10:27;;;;;;;11.43;9.75;;;4.20;99.90;;;;;;4813264;29;20225;-81
2021/03/25 05:12:57;;;;;;;10.93;9.35;;;4.20;99.90;;;;;;4815666;29;20217;-81
2021/03/25 05:15:23;;;;;;;11.63;10.43;;;4.20;99.90;;;;;;4816730;29;20247;-81
2021/03/25 05:18:01;;;;;;;14.45;10.77;;;4.20;99.90;;;;;;4816808;29;20716;-81
2021/03/25 05:20:34;;;;;;;9.70;8.70;;;4.20;99.90;;;;;;4812898;29;20700;-81
2021/03/25 05:23:08;;;;;;;19.98;11.20;;;4.20;99.90;;;;;;4812627;29;20250;-81
2021/03/25 05:25:40;;;;;;;11.70;10.52;;;4.20;99.90;;;;;;4813495;29;20214;-81
2021/03/25 05:28:11;;;;;;;11.20;10.10;;;4.20;99.90;;;;;;4812672;29;20222;-81
2021/03/25 05:30:40;;;;;;;9.43;8.43;;;4.20;99.90;;;;;;4813154;29;20214;-81
2021/03/25 05:33:11;;;;;;;11.02;9.32;;;4.30;99.90;;;;;;4812652;29;20217;-81
2021/03/25 05:35:40;;;;;;;13.32;10.13;;;4.30;99.90;;;;;;4811262;29;20704;-81
2021/03/25 05:38:07;;;;;;;9.10;8.20;;;4.30;99.90;;;;;;4812532;29;20214;-81
2021/03/25 05:40:38;;;;;;;10.45;9.43;;;4.30;99.90;;;;;;4812802;29;20211;-81
2021/03/25 05:43:41;;;;;;;12.00;10.77;;;4.40;99.90;;;;;;4812666;29;20261;-81
2021/03/25 05:46:17;;;;;;;13.32;10.38;;;4.40;99.90;;;;;;4811646;29;20243;-81
2021/03/25 05:48:58;;;;;;;13.40;10.68;;;4.40;99.90;;;;;;4812255;29;20236;-81
2021/03/25 05:51:37;;;;;;;10.80;9.82;;;4.40;99.90;;;;;;4812254;29;20302;-81
2021/03/25 05:54:19;;;;;;;14.10;10.13;;;4.50;99.90;;;;;;4811622;29;20218;-81
2021/03/25 05:57:00;;;;;;;14.57;9.90;;;4.40;99.90;;;;;;4811737;29;20239;-81
2021/03/25 05:59:31;;;;;;;12.48;10.40;;;4.50;99.90;;;;;;4812433;29;20264;-81
2021/03/25 06:02:04;;;;;;;12.13;10.90;;;4.50;99.90;;;;;;4811396;29;20231;-81
2021/03/25 06:04:33;;;;;;;12.38;10.90;;;4.60;99.90;;;;;;4811939;29;20222;-81
2021/03/25 06:07:37;;;;;;;13.25;11.77;;;4.60;99.90;;;;;;4811326;29;20243;-81
2021/03/25 06:10:11;;;;;;;16.38;12.05;;;4.70;99.90;;;;;;4811800;29;20218;-81
2021/03/25 06:12:59;;;;;;;13.40;11.00;;;4.70;99.90;;;;;;4811702;29;20207;-81
2021/03/25 06:15:37;;;;;;;10.73;9.73;;;4.80;99.90;;;;;;4811719;29;20218;-81
2021/03/25 06:18:20;;;;;;;11.90;9.73;;;4.90;99.90;;;;;;4812293;29;20221;-81
2021/03/25 06:21:03;;;;;;;13.43;11.93;;;5.00;99.90;;;;;;4811958;29;20214;-81
2021/03/25 06:23:41;;;;;;;11.60;9.93;;;5.00;99.90;;;;;;4811142;29;20228;-81
2021/03/25 06:26:26;;;;;;;14.00;10.68;;;5.10;99.90;;;;;;4812301;29;20249;-81
2021/03/25 06:29:02;;;;;;;15.93;11.25;;;5.20;99.90;;;;;;4811850;29;20244;-81
2021/03/25 06:31:43;;;;;;;13.32;11.93;;;5.20;99.90;;;;;;4811200;29;20210;-81
2021/03/25 06:34:15;;;;;;;11.32;10.23;;;5.30;99.90;;;;;;4811456;29;20709;-81
2021/03/25 06:36:48;;;;;;;11.38;10.27;;;5.40;99.90;;;;;;4811804;29;20737;-81
2021/03/25 06:39:28;;;;;;;14.48;11.25;;;5.50;99.90;;;;;;4811618;29;20221;-81
2021/03/25 06:42:04;;;;;;;10.63;9.40;;;5.60;99.90;;;;;;4811127;29;20238;-81
2021/03/25 06:44:38;;;;;;;10.63;9.63;;;5.70;99.90;;;;;;4812155;29;20213;-81
2021/03/25 06:47:18;;;;;;;12.10;9.82;;;5.80;99.90;;;;;;4811746;29;20724;-80
2021/03/25 06:49:50;;;;;;;13.75;9.27;;;5.80;99.90;;;;;;4810873;29;20278;-80
2021/03/25 06:52:25;;;;;;;11.38;10.35;;;5.90;99.90;;;;;;4810819;29;20213;-80
2021/03/25 06:54:54;;;;;;;12.88;11.27;;;6.10;99.90;;;;;;4811159;29;20290;-80
2021/03/25 06:57:23;;;;;;;11.80;10.55;;;6.10;99.90;;;;;;4811137;29;20314;-80
2021/03/25 06:59:56;;;;;;;14.38;11.95;;;6.20;99.90;;;;;;4811321;29;20214;-80
2021/03/25 07:02:27;;;;;;;11.05;9.80;;;6.30;99.90;;;;;;4810356;29;20242;-80
2021/03/25 07:04:57;;;;;;;12.60;11.27;;;6.40;99.90;;;;;;4810745;29;20214;-80
2021/03/25 07:07:28;;;;;;;11.45;10.25;;;6.50;99.90;;;;;;4810688;29;20237;-80
2021/03/25 07:09:57;;;;;;;12.20;10.57;;;6.60;99.90;;;;;;4810832;29;20214;-81
2021/03/25 07:12:26;;;;;;;13.18;10.63;;;6.70;99.90;;;;;;4810511;29;20595;-80
2021/03/25 07:14:55;;;;;;;15.00;10.05;;;6.80;99.90;;;;;;4810982;29;20218;-79
2021/03/25 07:17:31;;;;;;;13.43;9.75;;;6.90;99.90;;;;;;4810488;29;20286;-80
2021/03/25 07:20:01;;;;;;;10.57;9.48;;;7.00;99.90;;;;;;4811055;29;20218;-80
2021/03/25 07:22:31;;;;;;;15.13;9.13;;;7.10;99.90;;;;;;4810140;29;20284;-80
2021/03/25 07:25:17;;;;;;;13.02;10.27;;;7.10;99.90;;;;;;4810798;29;20211;-80
2021/03/25 07:27:43;;;;;;;14.02;11.05;;;7.20;99.90;;;;;;4810501;29;20240;-80
2021/03/25 07:30:13;;;;;;;12.63;10.15;;;7.30;99.90;;;;;;4810342;29;20237;-80
2021/03/25 07:32:47;;;;;;;11.02;9.15;;;7.40;99.90;;;;;;4810285;29;20268;-80
2021/03/25 07:35:23;;;;;;;10.80;9.70;;;7.50;99.90;;;;;;4810432;29;20719;-80
2021/03/25 07:37:51;;;;;;;10.05;9.05;;;7.60;99.90;;;;;;4810107;29;20772;-80
2021/03/25 07:40:28;;;;;;;17.88;11.48;;;7.70;99.90;;;;;;4809789;29;20210;-80
2021/03/25 07:42:55;;;;;;;10.05;9.00;;;7.80;99.90;;;;;;4809866;29;20252;-80
2021/03/25 07:45:30;;;;;;;13.07;11.50;;;8.00;99.90;;;;;;4810295;29;20229;-82
2021/03/25 07:48:15;;;;;;;11.50;10.40;;;8.10;99.90;;;;;;4812433;29;20272;-82
2021/03/25 07:50:42;;;;;;;12.88;9.95;;;8.30;99.90;;;;;;4813384;29;20237;-81
2021/03/25 07:53:22;;;;;;;13.25;11.95;;;8.50;99.70;;;;;;4812657;29;20206;-81
2021/03/25 07:55:48;;;;;;;15.98;12.95;;;8.60;99.70;;;;;;4812175;29;20215;-81
2021/03/25 07:58:33;;;;;;;12.70;11.30;;;8.80;99.60;;;;;;4811979;29;20226;-81
2021/03/25 08:01:07;;;;;;;12.88;11.57;;;9.00;99.30;;;;;;4812643;29;20604;-82
2021/03/25 08:03:44;;;;;;;11.05;9.48;;;9.10;98.80;;;;;;4812786;29;20238;-82
2021/03/25 08:06:17;;;;;;;13.00;11.80;;;9.30;99.00;;;;;;4812250;29;20235;-82
2021/03/25 08:08:45;;;;;;;12.02;10.68;;;9.50;98.70;;;;;;4822291;29;20281;-81
2021/03/25 08:11:14;;;;;;;12.02;10.68;;;9.60;98.30;;;;;;4822942;29;20245;-80
2021/03/25 08:13:48;;;;;;;14.18;10.38;;;9.70;98.20;;;;;;4816731;29;20247;-81
2021/03/25 08:16:16;;;;;;;15.37;9.93;;;9.90;97.90;;;;;;4811824;29;20234;-81
2021/03/25 08:19:05;;;;;;;14.77;10.50;;;10.00;97.30;;;;;;4809891;29;20480;-81
2021/03/25 08:21:42;;;;;;;10.97;9.90;;;10.20;97.00;;;;;;4808627;29;20711;-80
2021/03/25 08:24:48;;;;;;;11.90;9.57;;;10.40;96.80;;;;;;4809443;29;20457;-82
2021/03/25 08:27:27;;;;;;;16.77;11.30;;;10.60;96.40;;;;;;4807791;29;20470;-82
2021/03/25 08:30:04;;;;;;;14.07;9.60;;;10.80;96.10;;;;;;4800292;29;20450;-82
2021/03/25 08:32:42;;;;;;;11.77;8.73;;;11.00;95.80;;;;;;4809227;29;20458;-83
2021/03/25 08:35:19;;;;;;;10.17;9.23;;;11.20;95.40;;;;;;4807406;29;20519;-82
2021/03/25 08:37:59;;;;;;;9.73;8.20;;;11.40;95.10;;;;;;4806726;29;20486;-82
2021/03/25 08:40:38;;;;;;;7.90;7.20;;;11.60;94.90;;;;;;4808439;29;20974;-82
2021/03/25 08:43:07;;;;;;;8.83;7.20;;;11.70;94.10;;;;;;4808741;29;20566;-82
2021/03/25 08:45:41;;;;;;;16.17;7.97;;;11.90;93.60;;;;;;4810679;29;20558;-82
2021/03/25 08:48:13;;;;;;;9.60;8.70;;;12.10;93.20;;;;;;4805232;29;20466;-84
2021/03/25 08:50:47;;;;;;;10.30;9.17;;;12.20;93.60;;;;;;4813570;29;20463;-86
2021/03/25 08:53:27;;;;;;;15.10;7.97;;;12.40;93.60;;;;;;4813477;29;20459;-87
2021/03/25 08:56:01;;;;;;;9.60;7.60;;;12.60;92.70;;;;;;4814062;29;20484;-85
2021/03/25 08:58:36;;;;;;;8.27;7.47;;;12.80;93.00;;;;;;4812786;29;20460;-85
2021/03/25 09:01:06;;;;;;;8.30;7.50;;;13.00;93.10;;;;;;4812244;29;20522;-84
2021/03/25 09:03:37;;;;;;;8.03;6.50;;;13.20;92.30;;;;;;4810510;29;20515;-82
2021/03/25 09:06:06;;;;;;;11.13;8.33;;;13.30;90.80;;;;;;4824746;29;20491;-82
2021/03/25 09:08:36;;;;;;;9.00;8.10;;;13.40;91.20;;;;;;4828287;29;20451;-83
2021/03/25 09:11:06;;;;;;;11.13;9.80;;;13.60;92.20;;;;;;4831160;29;20466;-85
2021/03/25 09:13:36;;;;;;;8.50;7.80;;;13.70;92.20;;;;;;4828723;29;20460;-86
2021/03/25 09:16:11;;;;;;;9.20;8.50;;;13.90;91.60;;;;;;4816061;29;20491;-83
2021/03/25 09:18:43;;;;;;;10.00;7.57;;;14.10;91.70;;;;;;4813460;29;20566;-84
2021/03/25 09:21:12;;;;;;;6.73;6.07;;;14.30;91.20;;;;;;4812921;29;20472;-85
2021/03/25 09:24:11;;;;;;;8.53;7.83;;;14.50;90.80;;;;;;4817264;29;20501;-85
2021/03/25 09:26:51;;;;;;;8.70;7.80;;;14.70;90.30;;;;;;4812556;29;20491;-82
2021/03/25 09:29:21;;;;;;;7.53;6.83;;;15.00;89.90;;;;;;4813575;29;20455;-84
2021/03/25 09:32:41;;;;;;;11.77;7.87;;;15.10;88.90;;;;;;4813617;29;20463;-85
2021/03/25 09:35:38;;;;;;;5.80;5.07;;;15.30;87.10;;;;;;4737958;30;20449;-82
2021/03/25 09:38:05;;;;;;;9.10;5.47;;;15.60;84.70;;;;;;4772291;30;20494;-84
2021/03/25 09:40:50;;;;;;;6.67;5.60;;;15.70;84.00;;;;;;4801373;29;20487;-82
2021/03/25 09:43:43;;;;;;;4.60;4.17;;;16.00;83.10;;;;;;4826237;29;21552;-81
2021/03/25 09:46:40;;;;;;;6.50;5.90;;;16.10;79.80;;;;;;4830004;29;20486;-81
2021/03/25 09:49:31;;;;;;;5.20;4.70;;;16.30;79.70;;;;;;4779949;29;20523;-82
2021/03/25 09:52:28;;;;;;;10.70;5.40;;;16.40;79.00;;;;;;4829535;29;20457;-81
2021/03/25 09:55:14;;;;;;;7.80;5.80;;;16.50;77.90;;;;;;4824845;29;20473;-85
2021/03/25 09:57:42;;;;;;;5.90;5.40;;;16.70;78.50;;;;;;4813438;29;20488;-85
2021/03/25 10:00:12;;;;;;;6.23;4.83;;;16.80;78.00;;;;;;4815374;29;20468;-85
2021/03/25 10:02:56;;;;;;;6.77;5.80;;;16.90;75.20;;;;;;4811185;29;20511;-85
2021/03/25 10:05:35;;;;;;;6.37;5.57;;;16.90;74.90;;;;;;4814534;29;21252;-86
2021/03/25 10:08:04;;;;;;;5.40;4.90;;;17.00;72.60;;;;;;4811402;29;20971;-84
2021/03/25 10:10:39;;;;;;;6.13;5.47;;;17.10;73.30;;;;;;4810538;29;20472;-84
2021/03/25 10:13:20;;;;;;;6.00;4.03;;;17.10;73.40;;;;;;4807918;29;20465;-85
2021/03/25 10:15:56;;;;;;;5.10;4.70;;;17.20;72.10;;;;;;4807406;29;20471;-86
2021/03/25 10:18:48;;;;;;;5.73;5.10;;;17.30;71.70;;;;;;4814945;29;20955;-86
2021/03/25 10:21:16;;;;;;;6.20;5.63;;;17.30;72.30;;;;;;4811119;29;20462;-83
2021/03/25 10:23:58;;;;;;;7.00;5.40;;;17.40;72.70;;;;;;4815102;29;21078;-85
2021/03/25 10:26:32;;;;;;;5.73;5.13;;;17.60;73.20;;;;;;4814891;29;20490;-84
2021/03/25 10:29:04;;;;;;;5.83;5.23;;;17.80;72.30;;;;;;4813274;29;20473;-85
2021/03/25 10:31:40;;;;;;;10.03;5.00;;;18.00;71.80;;;;;;4814418;29;20470;-85
2021/03/25 10:34:12;;;;;;;7.10;5.03;;;18.20;71.50;;;;;;4811286;29;20544;-84
2021/03/25 10:36:48;;;;;;;16.83;5.40;;;18.40;70.50;;;;;;4811875;29;20493;-85
2021/03/25 10:39:20;;;;;;;6.40;4.40;;;18.60;69.20;;;;;;4814222;29;20474;-85
2021/03/25 10:41:47;;;;;;;6.10;5.27;;;18.80;70.00;;;;;;4814358;29;20501;-85
2021/03/25 10:44:18;;;;;;;5.70;5.20;;;18.90;68.50;;;;;;4811636;29;20456;-85
2021/03/25 10:46:46;;;;;;;6.23;5.33;;;19.10;65.70;;;;;;4812103;29;20657;-85
2021/03/25 10:49:18;;;;;;;7.43;5.53;;;19.20;62.00;;;;;;4813376;29;20468;-85
2021/03/25 10:51:47;;;;;;;5.50;5.00;;;18.90;58.60;;;;;;4813288;29;20970;-84
2021/03/25 10:54:29;;;;;;;7.13;6.40;;;18.40;58.60;;;;;;4813470;29;20459;-86
2021/03/25 10:57:02;;;;;;;7.37;6.60;;;18.50;60.10;;;;;;4812121;29;20889;-85
2021/03/25 10:59:29;;;;;;;6.47;5.87;;;18.30;59.80;;;;;;4812261;29;20492;-84
2021/03/25 11:01:58;;;;;;;6.37;5.33;;;18.10;60.50;;;;;;4811795;29;20495;-85
2021/03/25 11:04:27;;;;;;;6.23;5.53;;;18.20;60.70;;;;;;4818060;29;20494;-86
2021/03/25 11:06:54;;;;;;;6.60;6.00;;;18.40;60.30;;;;;;4829670;29;20558;-84
2021/03/25 11:09:24;;;;;;;8.00;5.80;;;18.80;60.40;;;;;;4827597;29;20881;-85
2021/03/25 11:11:58;;;;;;;6.30;5.40;;;19.30;59.80;;;;;;4829080;29;20456;-84
2021/03/25 11:14:30;;;;;;;10.97;6.80;;;19.70;59.30;;;;;;4827515;29;20462;-85
2021/03/25 11:17:09;;;;;;;8.07;7.27;;;20.00;57.90;;;;;;4827909;29;20942;-85
2021/03/25 11:19:36;;;;;;;7.80;5.93;;;20.20;57.40;;;;;;4827399;29;20552;-84
2021/03/25 11:22:02;;;;;;;7.13;6.43;;;20.30;56.20;;;;;;4829076;29;20581;-85
2021/03/25 11:24:32;;;;;;;6.70;6.10;;;20.30;56.30;;;;;;4827179;29;20460;-83
2021/03/25 11:27:01;;;;;;;7.10;6.40;;;20.30;56.40;;;;;;4828828;29;20938;-84
2021/03/25 11:29:29;;;;;;;12.90;6.13;;;20.10;54.30;;;;;;4828038;29;20529;-86
2021/03/25 11:32:21;;;;;;;7.83;6.53;;;19.80;54.10;;;;;;4825642;29;20453;-84
2021/03/25 11:34:49;;;;;;;7.20;6.50;;;19.40;54.20;;;;;;4831456;29;20476;-85
2021/03/25 11:37:22;;;;;;;6.93;5.13;;;19.20;54.90;;;;;;4828903;29;20483;-83
2021/03/25 11:40:00;;;;;;;7.17;5.83;;;19.20;55.30;;;;;;4827865;29;20465;-85
2021/03/25 11:42:32;;;;;;;8.87;6.27;;;18.90;55.10;;;;;;4827537;29;20497;-84
2021/03/25 11:44:59;;;;;;;6.63;6.03;;;18.90;54.90;;;;;;4828022;29;20473;-84
2021/03/25 11:47:39;;;;;;;6.80;6.10;;;19.10;56.80;;;;;;4827882;29;20498;-85
2021/03/25 11:50:10;;;;;;;6.97;6.37;;;19.70;55.30;;;;;;4823261;29;20462;-85
2021/03/25 11:52:41;;;;;;;6.67;5.87;;;20.10;54.50;;;;;;4817182;29;20461;-83
2021/03/25 11:55:19;;;;;;;7.20;5.63;;;20.30;53.40;;;;;;4813045;29;20464;-84
2021/03/25 11:57:46;;;;;;;7.70;5.60;;;20.60;54.20;;;;;;4815399;29;20484;-86
2021/03/25 12:00:15;;;;;;;7.20;5.70;;;21.20;54.20;;;;;;4816441;29;20474;-85
2021/03/25 12:02:43;;;;;;;9.13;6.47;;;22.10;54.00;;;;;;4814050;29;20494;-84
2021/03/25 12:05:42;;;;;;;6.80;6.03;;;23.20;52.70;;;;;;4814547;29;20452;-85
2021/03/25 12:08:29;;;;;;;6.90;6.20;;;24.00;49.50;;;;;;4720302;30;20465;-84
2021/03/25 12:11:13;;;;;;;6.37;5.77;;;23.90;47.20;;;;;;4803971;29;20479;-83
2021/03/25 12:13:42;;;;;;;7.43;6.73;;;23.50;47.20;;;;;;4812945;29;20457;-85
2021/03/25 12:16:10;;;;;;;6.43;5.77;;;22.90;47.30;;;;;;4813915;29;20572;-85
2021/03/25 12:18:41;;;;;;;7.10;5.90;;;22.50;48.10;;;;;;4812652;29;20469;-84
2021/03/25 12:21:10;;;;;;;8.97;6.00;;;22.10;47.80;;;;;;4814193;29;20458;-86
2021/03/25 12:23:39;;;;;;;7.17;6.57;;;21.80;48.10;;;;;;4816114;29;20496;-86
2021/03/25 12:26:07;;;;;;;5.70;4.93;;;21.40;48.20;;;;;;4810711;29;20476;-83
2021/03/25 12:28:35;;;;;;;7.00;6.30;;;21.20;49.10;;;;;;4811021;29;20465;-84
2021/03/25 12:31:02;;;;;;;5.90;5.30;;;21.10;48.80;;;;;;4812645;29;20519;-84
2021/03/25 12:33:32;;;;;;;6.43;5.83;;;20.90;49.30;;;;;;4811891;29;20467;-84
2021/03/25 12:36:00;;;;;;;11.13;5.80;;;20.70;49.60;;;;;;4812043;29;20492;-84
2021/03/25 12:38:27;;;;;;;7.60;5.30;;;20.70;50.10;;;;;;4811664;29;20468;-84
2021/03/25 12:40:54;;;;;;;6.10;5.20;;;20.60;49.30;;;;;;4811435;29;20471;-84
2021/03/25 12:43:24;;;;;;;6.87;6.17;;;20.40;49.50;;;;;;4810689;29;20496;-84
2021/03/25 12:45:53;;;;;;;6.80;6.07;;;20.20;49.90;;;;;;4812314;29;20536;-84
2021/03/25 12:48:20;;;;;;;5.67;5.17;;;19.90;50.00;;;;;;4812274;29;20540;-82
2021/03/25 12:50:47;;;;;;;5.90;4.23;;;19.80;50.50;;;;;;4813506;29;20460;-83
2021/03/25 12:53:15;;;;;;;5.97;5.37;;;19.80;51.20;;;;;;4812402;29;20950;-84
2021/03/25 12:56:00;;;;;;;6.10;4.90;;;20.10;52.10;;;;;;4813600;29;20485;-82
2021/03/25 12:58:35;;;;;;;7.50;5.70;;;20.50;51.00;;;;;;4813551;29;20478;-84
2021/03/25 13:01:27;;;;;;;7.27;6.60;;;20.80;50.00;;;;;;4812881;29;20884;-82
2021/03/25 13:04:03;;;;;;;8.37;6.60;;;20.80;49.60;;;;;;4812786;29;20505;-84
2021/03/25 13:06:37;;;;;;;9.93;8.50;;;20.80;50.00;;;;;;4812388;29;20522;-84
2021/03/25 13:09:07;;;;;;;10.90;9.10;;;20.50;50.00;;;;;;4812268;29;21027;-83
2021/03/25 13:11:39;;;;;;;9.70;7.83;;;20.30;51.50;;;;;;4812491;29;20464;-84